sensor_id;sensor_type;location;lat;lon;timestamp;temperature;humidity
7196;DHT22;3639;51.308;5.624;2023-03-12T00:01:16;2.70;99.90
7196;DHT22;3639;51.308;5.624;2023-03-12T00:03:42;2.70;99.90
7196;DHT22;3639;51.308;5.624;2023-03-12T00:06:08;2.60;99.90
7196;DHT22;3639;51.308;5.624;2023-03-12T00:08:34;2.70;99.90
7196;DHT22;3639;51.308;5.624;2023-03-12T00:11:03;2.70;99.90
7196;DHT22;3639;51.308;5.624;2023-03-12T00:13:29;2.70;99.90
7196;DHT22;3639;51.308;5.624;2023-03-12T00:15:55;2.70;99.90
7196;DHT22;3639;51.308;5.624;2023-03-12T00:18:20;2.70;99.90
7196;DHT22;3639;51.308;5.624;2023-03-12T00:20:53;2.70;99.90
7196;DHT22;3639;51.308;5.624;2023-03-12T00:23:19;2.70;99.90
7196;DHT22;3639;51.308;5.624;2023-03-12T00:25:44;2.70;99.90
7196;DHT22;3639;51.308;5.624;2023-03-12T00:28:10;2.80;99.90
7196;DHT22;3639;51.308;5.624;2023-03-12T00:30:36;2.80;99.90
7196;DHT22;3639;51.308;5.624;2023-03-12T00:33:01;2.70;99.90
7196;DHT22;3639;51.308;5.624;2023-03-12T00:35:27;2.70;99.90
7196;DHT22;3639;51.308;5.624;2023-03-12T00:37:53;2.70;99.90
7196;DHT22;3639;51.308;5.624;2023-03-12T00:40:18;2.70;99.90
7196;DHT22;3639;51.308;5.624;2023-03-12T00:42:44;2.70;99.90
7196;DHT22;3639;51.308;5.624;2023-03-12T00:45:10;2.80;99.90
7196;DHT22;3639;51.308;5.624;2023-03-12T00:47:35;2.80;99.90
7196;DHT22;3639;51.308;5.624;2023-03-12T00:50:01;2.80;99.90
7196;DHT22;3639;51.308;5.624;2023-03-12T00:52:27;2.70;99.90
7196;DHT22;3639;51.308;5.624;2023-03-12T00:54:53;2.70;99.90
7196;DHT22;3639;51.308;5.624;2023-03-12T00:57:22;2.70;99.90
7196;DHT22;3639;51.308;5.624;2023-03-12T00:59:48;2.70;99.90
7196;DHT22;3639;51.308;5.624;2023-03-12T01:02:13;2.70;99.90
7196;DHT22;3639;51.308;5.624;2023-03-12T01:04:39;2.80;99.90
7196;DHT22;3639;51.308;5.624;2023-03-12T01:07:04;2.70;99.90
7196;DHT22;3639;51.308;5.624;2023-03-12T01:09:30;2.70;99.90
7196;DHT22;3639;51.308;5.624;2023-03-12T01:11:56;2.80;99.90
7196;DHT22;3639;51.308;5.624;2023-03-12T01:14:21;2.80;99.90
7196;DHT22;3639;51.308;5.624;2023-03-12T01:16:48;2.80;99.90
7196;DHT22;3639;51.308;5.624;2023-03-12T01:19:14;2.80;99.90
7196;DHT22;3639;51.308;5.624;2023-03-12T01:21:40;2.80;99.90
7196;DHT22;3639;51.308;5.624;2023-03-12T01:24:06;2.80;99.90
7196;DHT22;3639;51.308;5.624;2023-03-12T01:26:32;2.90;99.90
7196;DHT22;3639;51.308;5.624;2023-03-12T01:28:58;2.90;99.90
7196;DHT22;3639;51.308;5.624;2023-03-12T01:31:23;2.90;99.90
7196;DHT22;3639;51.308;5.624;2023-03-12T01:33:51;2.90;99.90
7196;DHT22;3639;51.308;5.624;2023-03-12T01:36:25;2.90;99.90
7196;DHT22;3639;51.308;5.624;2023-03-12T01:38:53;2.90;99.90
7196;DHT22;3639;51.308;5.624;2023-03-12T01:41:20;2.90;99.90
7196;DHT22;3639;51.308;5.624;2023-03-12T01:43:46;2.80;99.90
7196;DHT22;3639;51.308;5.624;2023-03-12T01:46:34;2.80;99.90
7196;DHT22;3639;51.308;5.624;2023-03-12T01:51:29;2.90;99.90
7196;DHT22;3639;51.308;5.624;2023-03-12T01:53:59;2.90;99.90
7196;DHT22;3639;51.308;5.624;2023-03-12T01:56:28;2.80;99.90
7196;DHT22;3639;51.308;5.624;2023-03-12T01:58:58;2.80;99.90
7196;DHT22;3639;51.308;5.624;2023-03-12T02:01:25;2.80;99.90
7196;DHT22;3639;51.308;5.624;2023-03-12T02:03:53;2.80;99.90
7196;DHT22;3639;51.308;5.624;2023-03-12T02:06:24;2.80;99.90
7196;DHT22;3639;51.308;5.624;2023-03-12T02:08:51;2.80;99.90
7196;DHT22;3639;51.308;5.624;2023-03-12T02:11:17;2.80;99.90
7196;DHT22;3639;51.308;5.624;2023-03-12T02:13:43;2.80;99.90
7196;DHT22;3639;51.308;5.624;2023-03-12T02:16:09;2.80;99.90
7196;DHT22;3639;51.308;5.624;2023-03-12T02:18:35;2.80;99.90
7196;DHT22;3639;51.308;5.624;2023-03-12T02:21:10;2.80;99.90
7196;DHT22;3639;51.308;5.624;2023-03-12T02:26:25;2.80;99.90
7196;DHT22;3639;51.308;5.624;2023-03-12T02:28:53;2.80;99.90
7196;DHT22;3639;51.308;5.624;2023-03-12T02:31:22;2.90;99.90
7196;DHT22;3639;51.308;5.624;2023-03-12T02:33:49;2.80;99.90
7196;DHT22;3639;51.308;5.624;2023-03-12T02:36:18;2.80;99.90
7196;DHT22;3639;51.308;5.624;2023-03-12T02:38:48;2.80;99.90
7196;DHT22;3639;51.308;5.624;2023-03-12T02:43:50;2.80;99.90
7196;DHT22;3639;51.308;5.624;2023-03-12T02:46:17;2.90;99.90
7196;DHT22;3639;51.308;5.624;2023-03-12T02:48:43;2.90;99.90
7196;DHT22;3639;51.308;5.624;2023-03-12T02:51:09;2.90;99.90
7196;DHT22;3639;51.308;5.624;2023-03-12T02:53:34;2.80;99.90
7196;DHT22;3639;51.308;5.624;2023-03-12T02:56:00;2.80;99.90
7196;DHT22;3639;51.308;5.624;2023-03-12T02:58:26;2.80;99.90
7196;DHT22;3639;51.308;5.624;2023-03-12T03:00:51;2.80;99.90
7196;DHT22;3639;51.308;5.624;2023-03-12T03:03:17;2.90;99.90
7196;DHT22;3639;51.308;5.624;2023-03-12T03:05:43;2.90;99.90
7196;DHT22;3639;51.308;5.624;2023-03-12T03:08:08;2.90;99.90
7196;DHT22;3639;51.308;5.624;2023-03-12T03:10:34;2.90;99.90
7196;DHT22;3639;51.308;5.624;2023-03-12T03:13:00;3.00;99.90
7196;DHT22;3639;51.308;5.624;2023-03-12T03:15:25;3.00;99.90
7196;DHT22;3639;51.308;5.624;2023-03-12T03:17:51;3.10;99.90
7196;DHT22;3639;51.308;5.624;2023-03-12T03:20:17;3.00;99.90
7196;DHT22;3639;51.308;5.624;2023-03-12T03:22:43;3.00;99.90
7196;DHT22;3639;51.308;5.624;2023-03-12T03:25:09;3.00;99.90
7196;DHT22;3639;51.308;5.624;2023-03-12T03:27:35;3.10;99.90
7196;DHT22;3639;51.308;5.624;2023-03-12T03:30:01;3.10;99.90
7196;DHT22;3639;51.308;5.624;2023-03-12T03:32:26;3.10;99.90
7196;DHT22;3639;51.308;5.624;2023-03-12T03:34:52;3.10;99.90
7196;DHT22;3639;51.308;5.624;2023-03-12T03:37:18;3.10;99.90
7196;DHT22;3639;51.308;5.624;2023-03-12T03:39:43;3.00;99.90
7196;DHT22;3639;51.308;5.624;2023-03-12T03:42:09;3.00;99.90
7196;DHT22;3639;51.308;5.624;2023-03-12T03:44:34;3.00;99.90
7196;DHT22;3639;51.308;5.624;2023-03-12T03:47:00;3.00;99.90
7196;DHT22;3639;51.308;5.624;2023-03-12T03:49:26;3.00;99.90
7196;DHT22;3639;51.308;5.624;2023-03-12T03:51:52;3.00;99.90
7196;DHT22;3639;51.308;5.624;2023-03-12T03:54:18;3.00;99.90
7196;DHT22;3639;51.308;5.624;2023-03-12T03:56:43;3.00;99.90
7196;DHT22;3639;51.308;5.624;2023-03-12T03:59:09;2.90;99.90
7196;DHT22;3639;51.308;5.624;2023-03-12T04:01:35;2.90;99.90
7196;DHT22;3639;51.308;5.624;2023-03-12T04:04:02;2.90;99.90
7196;DHT22;3639;51.308;5.624;2023-03-12T04:06:29;2.90;99.90
7196;DHT22;3639;51.308;5.624;2023-03-12T04:08:58;2.90;99.90
7196;DHT22;3639;51.308;5.624;2023-03-12T04:11:24;2.90;99.90
7196;DHT22;3639;51.308;5.624;2023-03-12T04:13:50;2.90;99.90
7196;DHT22;3639;51.308;5.624;2023-03-12T04:16:16;2.90;99.90
7196;DHT22;3639;51.308;5.624;2023-03-12T04:18:43;2.90;99.90
7196;DHT22;3639;51.308;5.624;2023-03-12T04:21:10;2.90;99.90
7196;DHT22;3639;51.308;5.624;2023-03-12T04:23:36;2.90;99.90
7196;DHT22;3639;51.308;5.624;2023-03-12T04:26:03;2.90;99.90
7196;DHT22;3639;51.308;5.624;2023-03-12T04:28:29;2.90;99.90
7196;DHT22;3639;51.308;5.624;2023-03-12T04:30:59;2.90;99.90
7196;DHT22;3639;51.308;5.624;2023-03-12T04:33:31;2.90;99.90
7196;DHT22;3639;51.308;5.624;2023-03-12T04:35:57;2.90;99.90
7196;DHT22;3639;51.308;5.624;2023-03-12T04:38:25;2.90;99.90
7196;DHT22;3639;51.308;5.624;2023-03-12T04:41:02;3.00;99.90
7196;DHT22;3639;51.308;5.624;2023-03-12T04:43:29;2.90;99.90
7196;DHT22;3639;51.308;5.624;2023-03-12T04:45:55;3.00;99.90
7196;DHT22;3639;51.308;5.624;2023-03-12T04:48:21;3.00;99.90
7196;DHT22;3639;51.308;5.624;2023-03-12T04:50:46;3.00;99.90
7196;DHT22;3639;51.308;5.624;2023-03-12T04:53:12;3.00;99.90
7196;DHT22;3639;51.308;5.624;2023-03-12T04:55:38;3.00;99.90
7196;DHT22;3639;51.308;5.624;2023-03-12T04:58:03;3.00;99.90
7196;DHT22;3639;51.308;5.624;2023-03-12T05:00:29;3.00;99.90
7196;DHT22;3639;51.308;5.624;2023-03-12T05:02:55;3.10;99.90
7196;DHT22;3639;51.308;5.624;2023-03-12T05:05:20;3.10;99.90
7196;DHT22;3639;51.308;5.624;2023-03-12T05:07:46;3.20;99.90
7196;DHT22;3639;51.308;5.624;2023-03-12T05:10:12;3.30;99.90
7196;DHT22;3639;51.308;5.624;2023-03-12T05:12:38;3.40;99.90
7196;DHT22;3639;51.308;5.624;2023-03-12T05:15:05;3.40;99.90
7196;DHT22;3639;51.308;5.624;2023-03-12T05:17:30;3.50;99.90
7196;DHT22;3639;51.308;5.624;2023-03-12T05:19:56;3.50;99.90
7196;DHT22;3639;51.308;5.624;2023-03-12T05:22:22;3.50;99.90
7196;DHT22;3639;51.308;5.624;2023-03-12T05:24:47;3.40;99.90
7196;DHT22;3639;51.308;5.624;2023-03-12T05:27:13;3.40;99.90
7196;DHT22;3639;51.308;5.624;2023-03-12T05:29:39;3.40;99.90
7196;DHT22;3639;51.308;5.624;2023-03-12T05:32:05;3.40;99.90
7196;DHT22;3639;51.308;5.624;2023-03-12T05:34:32;3.40;99.90
7196;DHT22;3639;51.308;5.624;2023-03-12T05:36:57;3.40;99.90
7196;DHT22;3639;51.308;5.624;2023-03-12T05:39:24;3.40;99.90
7196;DHT22;3639;51.308;5.624;2023-03-12T05:41:50;3.40;99.90
7196;DHT22;3639;51.308;5.624;2023-03-12T05:44:18;3.40;99.90
7196;DHT22;3639;51.308;5.624;2023-03-12T05:46:44;3.40;99.90
7196;DHT22;3639;51.308;5.624;2023-03-12T05:49:09;3.40;99.90
7196;DHT22;3639;51.308;5.624;2023-03-12T05:51:35;3.40;99.90
7196;DHT22;3639;51.308;5.624;2023-03-12T05:54:01;3.40;99.90
7196;DHT22;3639;51.308;5.624;2023-03-12T05:56:27;3.40;99.90
7196;DHT22;3639;51.308;5.624;2023-03-12T05:58:53;3.40;99.90
7196;DHT22;3639;51.308;5.624;2023-03-12T06:01:22;3.50;99.90
7196;DHT22;3639;51.308;5.624;2023-03-12T06:03:48;3.50;99.90
7196;DHT22;3639;51.308;5.624;2023-03-12T06:06:14;3.50;99.90
7196;DHT22;3639;51.308;5.624;2023-03-12T06:08:40;3.50;99.90
7196;DHT22;3639;51.308;5.624;2023-03-12T06:11:06;3.50;99.90
7196;DHT22;3639;51.308;5.624;2023-03-12T06:13:33;3.50;99.90
7196;DHT22;3639;51.308;5.624;2023-03-12T06:16:28;3.60;99.90
7196;DHT22;3639;51.308;5.624;2023-03-12T06:18:58;3.50;99.90
7196;DHT22;3639;51.308;5.624;2023-03-12T06:21:27;3.60;99.90
7196;DHT22;3639;51.308;5.624;2023-03-12T06:23:53;3.60;99.90
7196;DHT22;3639;51.308;5.624;2023-03-12T06:26:20;3.60;99.90
7196;DHT22;3639;51.308;5.624;2023-03-12T06:28:46;3.60;99.90
7196;DHT22;3639;51.308;5.624;2023-03-12T06:31:13;3.60;99.90
7196;DHT22;3639;51.308;5.624;2023-03-12T06:33:38;3.60;99.90
7196;DHT22;3639;51.308;5.624;2023-03-12T06:36:06;3.60;99.90
7196;DHT22;3639;51.308;5.624;2023-03-12T06:38:33;3.70;99.90
7196;DHT22;3639;51.308;5.624;2023-03-12T06:41:01;3.70;99.90
7196;DHT22;3639;51.308;5.624;2023-03-12T06:43:28;3.70;99.90
7196;DHT22;3639;51.308;5.624;2023-03-12T06:45:56;3.70;99.90
7196;DHT22;3639;51.308;5.624;2023-03-12T06:48:23;3.80;99.90
7196;DHT22;3639;51.308;5.624;2023-03-12T06:50:49;3.70;99.90
7196;DHT22;3639;51.308;5.624;2023-03-12T06:53:16;3.70;99.90
7196;DHT22;3639;51.308;5.624;2023-03-12T06:55:42;3.70;99.90
7196;DHT22;3639;51.308;5.624;2023-03-12T06:58:08;3.70;99.90
7196;DHT22;3639;51.308;5.624;2023-03-12T07:00:34;3.80;99.90
7196;DHT22;3639;51.308;5.624;2023-03-12T07:03:00;3.80;99.90
7196;DHT22;3639;51.308;5.624;2023-03-12T07:05:26;3.80;99.90
7196;DHT22;3639;51.308;5.624;2023-03-12T07:07:52;3.80;99.90
7196;DHT22;3639;51.308;5.624;2023-03-12T07:10:17;3.90;99.90
7196;DHT22;3639;51.308;5.624;2023-03-12T07:12:44;3.90;99.90
7196;DHT22;3639;51.308;5.624;2023-03-12T07:15:10;3.90;99.90
7196;DHT22;3639;51.308;5.624;2023-03-12T07:17:36;4.00;99.90
7196;DHT22;3639;51.308;5.624;2023-03-12T07:20:02;4.00;99.90
7196;DHT22;3639;51.308;5.624;2023-03-12T07:22:28;4.10;99.90
7196;DHT22;3639;51.308;5.624;2023-03-12T07:24:53;4.10;99.90
7196;DHT22;3639;51.308;5.624;2023-03-12T07:27:19;4.20;99.90
7196;DHT22;3639;51.308;5.624;2023-03-12T07:29:45;4.20;99.90
7196;DHT22;3639;51.308;5.624;2023-03-12T07:32:11;4.30;99.90
7196;DHT22;3639;51.308;5.624;2023-03-12T07:34:37;4.20;99.90
7196;DHT22;3639;51.308;5.624;2023-03-12T07:37:03;4.40;99.90
7196;DHT22;3639;51.308;5.624;2023-03-12T07:39:29;4.30;99.90
7196;DHT22;3639;51.308;5.624;2023-03-12T07:41:55;4.40;99.90
7196;DHT22;3639;51.308;5.624;2023-03-12T07:44:20;4.50;99.90
7196;DHT22;3639;51.308;5.624;2023-03-12T07:46:46;4.50;99.90
7196;DHT22;3639;51.308;5.624;2023-03-12T07:49:12;4.50;99.90
7196;DHT22;3639;51.308;5.624;2023-03-12T07:51:37;4.60;99.90
7196;DHT22;3639;51.308;5.624;2023-03-12T07:54:03;4.60;99.90
7196;DHT22;3639;51.308;5.624;2023-03-12T07:56:30;4.50;99.90
7196;DHT22;3639;51.308;5.624;2023-03-12T07:58:56;4.60;99.90
7196;DHT22;3639;51.308;5.624;2023-03-12T08:01:21;4.60;99.90
7196;DHT22;3639;51.308;5.624;2023-03-12T08:03:47;4.60;99.90
7196;DHT22;3639;51.308;5.624;2023-03-12T08:06:13;4.70;99.90
7196;DHT22;3639;51.308;5.624;2023-03-12T08:08:39;4.70;99.90
7196;DHT22;3639;51.308;5.624;2023-03-12T08:11:07;4.80;99.90
7196;DHT22;3639;51.308;5.624;2023-03-12T08:13:33;4.80;99.90
7196;DHT22;3639;51.308;5.624;2023-03-12T08:15:59;4.90;99.90
7196;DHT22;3639;51.308;5.624;2023-03-12T08:18:25;4.90;99.90
7196;DHT22;3639;51.308;5.624;2023-03-12T08:20:52;4.90;99.90
7196;DHT22;3639;51.308;5.624;2023-03-12T08:23:19;5.00;99.90
7196;DHT22;3639;51.308;5.624;2023-03-12T08:25:46;5.00;99.90
7196;DHT22;3639;51.308;5.624;2023-03-12T08:28:13;5.10;99.90
7196;DHT22;3639;51.308;5.624;2023-03-12T08:30:38;5.20;99.90
7196;DHT22;3639;51.308;5.624;2023-03-12T08:33:04;5.20;99.90
7196;DHT22;3639;51.308;5.624;2023-03-12T08:35:30;5.30;99.90
7196;DHT22;3639;51.308;5.624;2023-03-12T08:37:55;5.30;99.90
7196;DHT22;3639;51.308;5.624;2023-03-12T08:40:25;5.40;99.90
7196;DHT22;3639;51.308;5.624;2023-03-12T08:42:50;5.60;99.90
7196;DHT22;3639;51.308;5.624;2023-03-12T08:45:16;5.60;99.90
7196;DHT22;3639;51.308;5.624;2023-03-12T08:47:42;5.70;99.90
7196;DHT22;3639;51.308;5.624;2023-03-12T08:50:11;5.80;99.90
7196;DHT22;3639;51.308;5.624;2023-03-12T08:52:37;5.90;99.90
7196;DHT22;3639;51.308;5.624;2023-03-12T08:55:03;5.90;99.90
7196;DHT22;3639;51.308;5.624;2023-03-12T08:57:30;6.00;99.90
7196;DHT22;3639;51.308;5.624;2023-03-12T08:59:56;6.00;99.90
7196;DHT22;3639;51.308;5.624;2023-03-12T09:02:22;6.10;99.90
7196;DHT22;3639;51.308;5.624;2023-03-12T09:04:48;6.20;99.90
7196;DHT22;3639;51.308;5.624;2023-03-12T09:07:14;6.30;99.90
7196;DHT22;3639;51.308;5.624;2023-03-12T09:09:43;6.30;99.90
7196;DHT22;3639;51.308;5.624;2023-03-12T09:12:09;6.40;99.90
7196;DHT22;3639;51.308;5.624;2023-03-12T09:14:35;6.40;99.90
7196;DHT22;3639;51.308;5.624;2023-03-12T09:17:00;6.50;99.90
7196;DHT22;3639;51.308;5.624;2023-03-12T09:19:26;6.60;99.90
7196;DHT22;3639;51.308;5.624;2023-03-12T09:21:52;6.60;99.90
7196;DHT22;3639;51.308;5.624;2023-03-12T09:24:18;6.70;99.90
7196;DHT22;3639;51.308;5.624;2023-03-12T09:26:44;6.80;99.90
7196;DHT22;3639;51.308;5.624;2023-03-12T09:29:09;6.90;99.90
7196;DHT22;3639;51.308;5.624;2023-03-12T09:31:35;7.00;99.90
7196;DHT22;3639;51.308;5.624;2023-03-12T09:34:01;7.00;99.90
7196;DHT22;3639;51.308;5.624;2023-03-12T09:36:27;7.10;99.90
7196;DHT22;3639;51.308;5.624;2023-03-12T09:38:53;7.20;99.90
7196;DHT22;3639;51.308;5.624;2023-03-12T09:41:28;7.30;99.90
7196;DHT22;3639;51.308;5.624;2023-03-12T09:43:59;7.30;99.90
7196;DHT22;3639;51.308;5.624;2023-03-12T09:46:52;7.40;99.90
7196;DHT22;3639;51.308;5.624;2023-03-12T09:49:33;7.50;99.90
7196;DHT22;3639;51.308;5.624;2023-03-12T09:52:05;7.60;99.90
7196;DHT22;3639;51.308;5.624;2023-03-12T09:54:44;7.80;99.90
7196;DHT22;3639;51.308;5.624;2023-03-12T09:57:22;7.80;99.90
7196;DHT22;3639;51.308;5.624;2023-03-12T09:59:50;8.00;99.90
7196;DHT22;3639;51.308;5.624;2023-03-12T10:04:57;8.20;99.90
7196;DHT22;3639;51.308;5.624;2023-03-12T10:08:25;8.30;99.90
7196;DHT22;3639;51.308;5.624;2023-03-12T10:10:57;8.40;99.90
7196;DHT22;3639;51.308;5.624;2023-03-12T10:16:21;8.50;99.90
7196;DHT22;3639;51.308;5.624;2023-03-12T10:27:17;8.80;99.90
7196;DHT22;3639;51.308;5.624;2023-03-12T10:29:49;8.80;99.90
7196;DHT22;3639;51.308;5.624;2023-03-12T10:32:38;8.80;99.90
7196;DHT22;3639;51.308;5.624;2023-03-12T10:35:20;8.80;99.90
7196;DHT22;3639;51.308;5.624;2023-03-12T10:37:56;8.80;99.90
7196;DHT22;3639;51.308;5.624;2023-03-12T10:40:31;8.80;99.90
7196;DHT22;3639;51.308;5.624;2023-03-12T10:43:01;8.90;99.90
7196;DHT22;3639;51.308;5.624;2023-03-12T10:45:33;9.00;99.90
7196;DHT22;3639;51.308;5.624;2023-03-12T10:48:04;9.00;99.90
7196;DHT22;3639;51.308;5.624;2023-03-12T10:50:39;9.20;99.90
7196;DHT22;3639;51.308;5.624;2023-03-12T10:56:00;9.30;99.90
7196;DHT22;3639;51.308;5.624;2023-03-12T10:58:32;9.40;99.90
7196;DHT22;3639;51.308;5.624;2023-03-12T11:01:00;9.40;99.90
7196;DHT22;3639;51.308;5.624;2023-03-12T11:03:26;9.50;99.90
7196;DHT22;3639;51.308;5.624;2023-03-12T11:05:55;9.50;99.90
7196;DHT22;3639;51.308;5.624;2023-03-12T11:08:27;9.60;99.90
7196;DHT22;3639;51.308;5.624;2023-03-12T11:10:54;9.60;99.90
7196;DHT22;3639;51.308;5.624;2023-03-12T11:13:36;9.60;99.90
7196;DHT22;3639;51.308;5.624;2023-03-12T11:18:56;9.70;99.90
7196;DHT22;3639;51.308;5.624;2023-03-12T11:21:22;9.90;99.90
7196;DHT22;3639;51.308;5.624;2023-03-12T11:26:30;10.10;99.90
7196;DHT22;3639;51.308;5.624;2023-03-12T11:29:29;10.30;99.90
7196;DHT22;3639;51.308;5.624;2023-03-12T11:32:18;10.50;99.90
7196;DHT22;3639;51.308;5.624;2023-03-12T11:34:45;10.50;99.90
7196;DHT22;3639;51.308;5.624;2023-03-12T11:45:55;10.70;99.90
7196;DHT22;3639;51.308;5.624;2023-03-12T11:48:27;10.90;99.90
7196;DHT22;3639;51.308;5.624;2023-03-12T11:56:29;11.30;99.90
7196;DHT22;3639;51.308;5.624;2023-03-12T12:01:55;11.30;99.90
7196;DHT22;3639;51.308;5.624;2023-03-12T12:13:02;11.40;99.90
7196;DHT22;3639;51.308;5.624;2023-03-12T12:15:53;11.40;99.90
7196;DHT22;3639;51.308;5.624;2023-03-12T12:21:31;11.40;99.90
7196;DHT22;3639;51.308;5.624;2023-03-12T12:29:53;11.80;99.90
7196;DHT22;3639;51.308;5.624;2023-03-12T12:38:09;12.00;99.90
7196;DHT22;3639;51.308;5.624;2023-03-12T12:45:41;12.20;99.90
7196;DHT22;3639;51.308;5.624;2023-03-12T12:48:15;12.20;99.90
7196;DHT22;3639;51.308;5.624;2023-03-12T12:50:41;12.20;99.90
7196;DHT22;3639;51.308;5.624;2023-03-12T12:53:22;12.30;99.90
7196;DHT22;3639;51.308;5.624;2023-03-12T13:01:09;12.60;99.90
7196;DHT22;3639;51.308;5.624;2023-03-12T13:03:36;12.60;99.90
7196;DHT22;3639;51.308;5.624;2023-03-12T13:06:04;12.50;99.90
7196;DHT22;3639;51.308;5.624;2023-03-12T13:11:04;12.20;99.90
7196;DHT22;3639;51.308;5.624;2023-03-12T13:13:30;12.00;99.90
7196;DHT22;3639;51.308;5.624;2023-03-12T13:22:06;12.00;99.90
7196;DHT22;3639;51.308;5.624;2023-03-12T13:29:46;12.40;99.90
7196;DHT22;3639;51.308;5.624;2023-03-12T13:32:36;12.60;99.90
7196;DHT22;3639;51.308;5.624;2023-03-12T13:43:59;12.80;99.90
7196;DHT22;3639;51.308;5.624;2023-03-12T13:48:30;12.50;99.90
7196;DHT22;3639;51.308;5.624;2023-03-12T13:51:00;12.50;99.90
7196;DHT22;3639;51.308;5.624;2023-03-12T13:53:35;12.50;99.90
7196;DHT22;3639;51.308;5.624;2023-03-12T13:56:07;12.40;99.90
7196;DHT22;3639;51.308;5.624;2023-03-12T13:59:02;12.30;99.90
7196;DHT22;3639;51.308;5.624;2023-03-12T14:01:48;12.20;99.90
7196;DHT22;3639;51.308;5.624;2023-03-12T14:04:19;12.20;99.90
7196;DHT22;3639;51.308;5.624;2023-03-12T14:18:24;12.00;99.90
7196;DHT22;3639;51.308;5.624;2023-03-12T14:21:02;12.00;99.90
7196;DHT22;3639;51.308;5.624;2023-03-12T14:23:37;12.00;99.90
7196;DHT22;3639;51.308;5.624;2023-03-12T14:26:04;11.90;99.90
7196;DHT22;3639;51.308;5.624;2023-03-12T14:28:32;11.90;99.90
7196;DHT22;3639;51.308;5.624;2023-03-12T14:31:06;11.90;99.90
7196;DHT22;3639;51.308;5.624;2023-03-12T14:36:26;12.00;99.90
7196;DHT22;3639;51.308;5.624;2023-03-12T14:39:00;12.00;99.90
7196;DHT22;3639;51.308;5.624;2023-03-12T14:41:38;12.10;99.90
7196;DHT22;3639;51.308;5.624;2023-03-12T14:44:21;12.20;99.90
7196;DHT22;3639;51.308;5.624;2023-03-12T14:46:55;12.30;99.90
7196;DHT22;3639;51.308;5.624;2023-03-12T14:49:21;12.30;99.90
7196;DHT22;3639;51.308;5.624;2023-03-12T14:51:47;12.40;99.90
7196;DHT22;3639;51.308;5.624;2023-03-12T14:54:24;12.30;99.90
7196;DHT22;3639;51.308;5.624;2023-03-12T14:56:50;12.40;99.90
7196;DHT22;3639;51.308;5.624;2023-03-12T14:59:28;12.40;99.90
7196;DHT22;3639;51.308;5.624;2023-03-12T15:01:59;12.30;99.90
7196;DHT22;3639;51.308;5.624;2023-03-12T15:04:25;12.30;99.90
7196;DHT22;3639;51.308;5.624;2023-03-12T15:06:59;12.30;99.90
7196;DHT22;3639;51.308;5.624;2023-03-12T15:09:30;12.30;99.90
7196;DHT22;3639;51.308;5.624;2023-03-12T15:11:59;12.30;99.90
7196;DHT22;3639;51.308;5.624;2023-03-12T15:14:27;12.20;99.90
7196;DHT22;3639;51.308;5.624;2023-03-12T15:16:55;12.20;99.90
7196;DHT22;3639;51.308;5.624;2023-03-12T15:19:29;12.10;99.90
7196;DHT22;3639;51.308;5.624;2023-03-12T15:21:55;12.10;99.90
7196;DHT22;3639;51.308;5.624;2023-03-12T15:24:22;12.20;99.90
7196;DHT22;3639;51.308;5.624;2023-03-12T15:26:47;12.20;99.90
7196;DHT22;3639;51.308;5.624;2023-03-12T15:29:26;12.20;99.90
7196;DHT22;3639;51.308;5.624;2023-03-12T15:31:57;12.20;99.90
7196;DHT22;3639;51.308;5.624;2023-03-12T15:34:33;12.30;99.90
7196;DHT22;3639;51.308;5.624;2023-03-12T15:37:02;12.30;99.90
7196;DHT22;3639;51.308;5.624;2023-03-12T15:39:36;12.30;99.90
7196;DHT22;3639;51.308;5.624;2023-03-12T15:42:13;12.30;99.90
7196;DHT22;3639;51.308;5.624;2023-03-12T15:47:30;12.30;99.90
7196;DHT22;3639;51.308;5.624;2023-03-12T15:50:01;12.20;99.90
7196;DHT22;3639;51.308;5.624;2023-03-12T15:52:33;12.20;99.90
7196;DHT22;3639;51.308;5.624;2023-03-12T15:57:50;12.10;99.90
7196;DHT22;3639;51.308;5.624;2023-03-12T16:00:33;12.10;99.90
7196;DHT22;3639;51.308;5.624;2023-03-12T16:03:14;12.00;99.90
7196;DHT22;3639;51.308;5.624;2023-03-12T16:05:40;12.10;99.90
7196;DHT22;3639;51.308;5.624;2023-03-12T16:08:19;12.10;99.90
7196;DHT22;3639;51.308;5.624;2023-03-12T16:10:46;12.00;99.90
7196;DHT22;3639;51.308;5.624;2023-03-12T16:13:14;12.00;99.90
7196;DHT22;3639;51.308;5.624;2023-03-12T16:15:41;11.90;99.90
7196;DHT22;3639;51.308;5.624;2023-03-12T16:18:17;11.90;99.90
7196;DHT22;3639;51.308;5.624;2023-03-12T16:20:43;11.90;99.90
7196;DHT22;3639;51.308;5.624;2023-03-12T16:23:10;11.90;99.90
7196;DHT22;3639;51.308;5.624;2023-03-12T16:25:36;11.90;99.90
7196;DHT22;3639;51.308;5.624;2023-03-12T16:28:04;11.90;99.90
7196;DHT22;3639;51.308;5.624;2023-03-12T16:30:32;11.90;99.90
7196;DHT22;3639;51.308;5.624;2023-03-12T16:33:00;11.90;99.90
7196;DHT22;3639;51.308;5.624;2023-03-12T16:35:27;11.90;99.90
7196;DHT22;3639;51.308;5.624;2023-03-12T16:37:53;11.80;99.90
7196;DHT22;3639;51.308;5.624;2023-03-12T16:40:20;11.80;99.90
7196;DHT22;3639;51.308;5.624;2023-03-12T16:42:49;11.80;99.90
7196;DHT22;3639;51.308;5.624;2023-03-12T16:45:16;11.80;99.90
7196;DHT22;3639;51.308;5.624;2023-03-12T16:47:43;11.80;99.90
7196;DHT22;3639;51.308;5.624;2023-03-12T16:50:14;11.70;99.90
7196;DHT22;3639;51.308;5.624;2023-03-12T16:52:39;11.70;99.90
7196;DHT22;3639;51.308;5.624;2023-03-12T16:55:06;11.70;99.90
7196;DHT22;3639;51.308;5.624;2023-03-12T16:57:34;11.70;99.90
7196;DHT22;3639;51.308;5.624;2023-03-12T17:00:04;11.60;99.90
7196;DHT22;3639;51.308;5.624;2023-03-12T17:02:33;11.60;99.90
7196;DHT22;3639;51.308;5.624;2023-03-12T17:04:59;11.60;99.90
7196;DHT22;3639;51.308;5.624;2023-03-12T17:07:24;11.50;99.90
7196;DHT22;3639;51.308;5.624;2023-03-12T17:09:50;11.50;99.90
7196;DHT22;3639;51.308;5.624;2023-03-12T17:12:33;11.40;99.90
7196;DHT22;3639;51.308;5.624;2023-03-12T17:15:02;11.40;99.90
7196;DHT22;3639;51.308;5.624;2023-03-12T17:17:29;11.40;99.90
7196;DHT22;3639;51.308;5.624;2023-03-12T17:19:55;11.30;99.90
7196;DHT22;3639;51.308;5.624;2023-03-12T17:22:24;11.40;99.90
7196;DHT22;3639;51.308;5.624;2023-03-12T17:24:49;11.40;99.90
7196;DHT22;3639;51.308;5.624;2023-03-12T17:27:15;11.40;99.90
7196;DHT22;3639;51.308;5.624;2023-03-12T17:29:41;11.50;99.90
7196;DHT22;3639;51.308;5.624;2023-03-12T17:32:06;11.50;99.90
7196;DHT22;3639;51.308;5.624;2023-03-12T17:34:32;11.50;99.90
7196;DHT22;3639;51.308;5.624;2023-03-12T17:36:58;11.40;99.90
7196;DHT22;3639;51.308;5.624;2023-03-12T17:39:24;11.40;99.90
7196;DHT22;3639;51.308;5.624;2023-03-12T17:41:50;11.40;99.90
7196;DHT22;3639;51.308;5.624;2023-03-12T17:44:16;11.40;99.90
7196;DHT22;3639;51.308;5.624;2023-03-12T17:46:42;11.30;99.90
7196;DHT22;3639;51.308;5.624;2023-03-12T17:49:08;11.30;99.90
7196;DHT22;3639;51.308;5.624;2023-03-12T17:51:33;11.30;99.90
7196;DHT22;3639;51.308;5.624;2023-03-12T17:53:59;11.30;99.90
7196;DHT22;3639;51.308;5.624;2023-03-12T17:56:25;11.20;99.90
7196;DHT22;3639;51.308;5.624;2023-03-12T17:58:50;11.30;99.90
7196;DHT22;3639;51.308;5.624;2023-03-12T18:01:16;11.30;99.90
7196;DHT22;3639;51.308;5.624;2023-03-12T18:03:42;11.30;99.90
7196;DHT22;3639;51.308;5.624;2023-03-12T18:06:09;11.30;99.90
7196;DHT22;3639;51.308;5.624;2023-03-12T18:08:34;11.30;99.90
7196;DHT22;3639;51.308;5.624;2023-03-12T18:11:00;11.30;99.90
7196;DHT22;3639;51.308;5.624;2023-03-12T18:13:28;11.30;99.90
7196;DHT22;3639;51.308;5.624;2023-03-12T18:15:55;11.20;99.90
7196;DHT22;3639;51.308;5.624;2023-03-12T18:18:22;11.10;99.90
7196;DHT22;3639;51.308;5.624;2023-03-12T18:20:48;11.00;99.90
7196;DHT22;3639;51.308;5.624;2023-03-12T18:23:14;11.10;99.90
7196;DHT22;3639;51.308;5.624;2023-03-12T18:25:40;11.10;99.90